Time;durP1;ratioP1;P1;durP2;ratioP2;P2;SDS_P1;SDS_P2;PMS_P1;PMS_P2;Temp;Humidity;BMP_temperature;BMP_pressure;BME280_temperature;BME280_humidity;BME280_pressure;Samples;Min_cycle;Max_cycle;Signal;HPM_P1;HPM_P2
2021/10/25 06:02:08;;;;;;;28.07;6.62;;;;;;;3.75;76.13;101803.34;1727872;80;21640;-35
2021/10/25 06:04:27;;;;;;;48.25;7.75;;;;;;;3.83;75.60;101811.52;1649320;83;21028;-34
2021/10/25 06:07:03;;;;;;;16.12;5.50;;;;;;;3.87;74.96;101813.43;1719235;81;21713;-38
2021/10/25 06:09:36;;;;;;;32.05;6.10;;;;;;;3.92;74.53;101823.63;1708169;82;21419;-39
2021/10/25 06:26:28;;;;;;;125.70;10.38;;;;;;;4.33;71.13;101826.98;1803544;77;21706;-35
2021/10/25 06:29:00;;;;;;;37.83;4.60;;;;;;;4.48;70.92;101832.94;1671315;82;21088;-39
2021/10/25 06:31:32;;;;;;;88.82;8.70;;;;;;;4.59;70.25;101832.58;1719945;81;21041;-35
2021/10/25 06:34:03;;;;;;;13.85;3.47;;;;;;;4.67;69.70;101836.01;1659042;82;21040;-39
2021/10/25 06:36:47;;;;;;;29.63;4.22;;;;;;;4.75;69.17;101832.10;1656135;84;21058;-39
2021/10/25 06:39:25;;;;;;;15.98;2.98;;;;;;;4.82;68.68;101831.98;1656833;83;20999;-35
2021/10/25 06:42:06;;;;;;;23.35;3.65;;;;;;;4.86;67.96;101838.18;1677501;82;21085;-39
2021/10/25 06:44:56;;;;;;;10.50;2.60;;;;;;;4.90;68.01;101831.03;1669052;83;21130;-36
2021/10/25 06:47:20;;;;;;;11.33;3.37;;;;;;;4.96;67.33;101838.69;1656883;85;21665;-38
2021/10/25 06:49:50;;;;;;;68.07;6.55;;;;;;;5.00;67.06;101835.44;1666068;83;21640;-35
2021/10/25 07:12:06;;;;;;;7.35;2.75;;;;;;;5.30;65.55;101846.75;1654568;85;21252;31
2021/10/25 07:14:40;;;;;;;9.93;2.58;;;;;;;5.46;65.56;101840.56;1564713;88;21168;-36
2021/10/25 07:17:31;;;;;;;9.75;2.35;;;;;;;5.62;64.13;101849.48;1587546;87;21173;-40
2021/10/25 08:01:14;;;;;;;5.25;1.90;;;;;;;6.79;56.58;101843.66;1732132;79;21049;-34
2021/10/25 08:03:52;;;;;;;3.75;1.98;;;;;;;6.78;56.67;101851.84;1705626;80;21190;-39
2021/10/25 08:11:43;;;;;;;4.65;1.65;;;;;;;7.14;54.19;101858.05;1704843;82;21957;-35
2021/10/25 08:28:01;;;;;;;1.32;1.22;;;;;;;7.04;52.36;101858.52;1725258;81;21856;-35
2021/10/25 08:30:39;;;;;;;2.22;1.30;;;;;;;7.06;52.88;101862.94;1704474;80;21225;-38
2021/10/25 08:39:57;;;;;;;1.15;0.95;;;;;;;7.40;51.62;101862.94;1761393;78;21162;-39
2021/10/25 08:46:18;;;;;;;1.30;1.20;;;;;;;7.45;49.21;101862.28;1707015;79;21137;-35
2021/10/25 08:48:56;;;;;;;1.37;1.27;;;;;;;7.51;48.64;101862.03;1748241;80;21109;-39
2021/10/25 08:55:38;;;;;;;1.25;1.10;;;;;;;7.55;49.21;101871.75;1672522;83;21272;-35
2021/10/25 08:58:28;;;;;;;1.62;1.05;;;;;;;7.69;48.40;101864.02;1640181;85;21072;-35
2021/10/25 09:05:12;;;;;;;8.93;1.37;;;;;;;7.84;47.69;101863.70;1750469;80;21024;-39
2021/10/25 09:11:24;;;;;;;1.82;1.15;;;;;;;7.55;47.25;101865.23;1746947;78;21640;-39
2021/10/25 09:14:23;;;;;;;1.77;1.02;;;;;;;7.49;48.17;101867.61;1750873;80;21102;-35
2021/10/25 09:17:05;;;;;;;1.27;1.17;;;;;;;7.56;47.99;101869.19;1742285;80;21226;-35
2021/10/25 09:19:52;;;;;;;3.25;1.00;;;;;;;7.57;47.56;101867.47;1749600;80;21074;-39
2021/10/25 09:22:26;;;;;;;1.67;1.32;;;;;;;7.50;46.91;101869.38;1742042;80;21059;-35
2021/10/25 09:25:03;;;;;;;1.47;1.37;;;;;;;7.39;47.34;101875.07;1735319;81;21467;-36
2021/10/25 09:30:20;;;;;;;1.15;1.05;;;;;;;7.33;47.45;101885.67;1750909;80;21059;-35
2021/10/25 09:32:48;;;;;;;1.90;1.10;;;;;;;7.43;47.38;101873.06;1732673;81;21613;-35
2021/10/25 09:35:22;;;;;;;73.17;6.03;;;;;;;7.50;46.90;101863.76;1697368;80;21541;-39
2021/10/25 09:51:08;;;;;;;1.92;1.20;;;;;;;7.99;47.16;101869.44;1736042;79;22550;-34
2021/10/25 09:56:20;;;;;;;3.35;1.67;;;;;;;8.98;45.55;101857.55;1783506;79;21068;-39
2021/10/25 10:02:54;;;;;;;3.47;1.42;;;;;;;9.40;44.55;101857.10;1756516;79;21182;-36
2021/10/25 10:05:40;;;;;;;5.90;1.52;;;;;;;9.10;44.42;101860.95;1730541;79;21188;-35
2021/10/25 10:08:47;;;;;;;3.98;1.17;;;;;;;8.83;45.05;101858.39;1763969;79;21325;-36
2021/10/25 10:15:43;;;;;;;1.57;1.25;;;;;;;10.11;44.49;101854.30;1673533;78;21230;-35
2021/10/25 10:18:55;;;;;;;2.10;1.40;;;;;;;11.36;40.62;101849.47;1661500;83;21104;-35
2021/10/25 10:21:45;;;;;;;1.80;1.50;;;;;;;12.15;39.51;101836.20;1670757;82;21083;-40
2021/10/25 10:24:14;;;;;;;6.87;1.32;;;;;;;12.69;38.04;101836.66;1655698;84;21031;-36
2021/10/25 10:27:13;;;;;;;2.35;1.40;;;;;;;12.56;37.24;101840.84;1635838;85;21241;-39
2021/10/25 10:38:06;;;;;;;2.05;0.98;;;;;;;12.50;37.78;101831.55;1680934;83;21212;-35
2021/10/25 10:40:45;;;;;;;1.12;1.00;;;;;;;13.52;35.09;101822.98;1658457;81;21144;-35
2021/10/25 10:43:36;;;;;;;3.40;1.22;;;;;;;13.93;34.09;101823.87;1699459;81;21071;-39
2021/10/25 10:46:17;;;;;;;1.25;1.10;;;;;;;14.32;33.32;101818.08;1710025;82;21108;-39
2021/10/25 10:52:42;;;;;;;2.02;1.80;;;;;;;14.92;32.25;101814.64;1682140;83;21120;-36
2021/10/25 10:56:07;;;;;;;6.50;1.20;;;;;;;15.60;31.72;101815.41;1699864;81;21719;-37
2021/10/25 11:02:46;;;;;;;1.42;0.88;;;;;;;16.11;30.69;101812.01;1725964;80;21694;-35
2021/10/25 11:11:16;;;;;;;2.50;1.00;;;;;;;17.04;28.92;101812.41;1741804;79;21072;-40
2021/10/25 11:14:13;;;;;;;2.27;1.62;;;;;;;17.20;28.49;101817.22;1717339;81;21083;-36
2021/10/25 11:19:56;;;;;;;25.52;11.40;;;;;;;17.54;27.90;101811.36;1593706;87;21091;-40
2021/10/25 11:24:55;;;;;;;8.50;1.80;;;;;;;18.07;27.49;101804.89;1605162;87;21119;-35
2021/10/25 11:27:35;;;;;;;4.33;1.95;;;;;;;18.36;26.54;101800.69;1618675;87;21548;-40
2021/10/25 11:30:11;;;;;;;4.95;3.05;;;;;;;18.58;26.59;101804.91;1604280;88;21169;-40
2021/10/25 11:32:47;;;;;;;7.35;4.05;;;;;;;18.66;26.85;101798.20;1622046;87;21159;-35
2021/10/25 11:35:27;;;;;;;3.83;2.25;;;;;;;18.64;26.73;101801.78;1598386;88;21108;-39
2021/10/25 11:38:04;;;;;;;9.98;4.45;;;;;;;18.45;26.85;101786.05;1601532;87;21342;-35
2021/10/25 11:40:48;;;;;;;28.87;13.20;;;;;;;18.13;26.54;101792.05;1598674;87;21545;-39
2021/10/25 11:43:27;;;;;;;58.08;30.30;;;;;;;17.20;27.58;101792.98;1610442;87;21549;-40
2021/10/25 11:46:19;;;;;;;11.68;7.17;;;;;;;16.53;27.92;101794.88;1618549;85;21171;-36
2021/10/25 11:49:02;;;;;;;3.58;2.05;;;;;;;15.72;29.31;101793.49;1591740;86;21131;-37
2021/10/25 11:51:50;;;;;;;7.97;2.25;;;;;;;15.12;29.88;101795.41;1644446;85;21092;-39
2021/10/25 11:54:18;;;;;;;3.17;2.20;;;;;;;14.73;30.52;101793.89;1600859;88;21107;-40
2021/10/25 11:56:59;;;;;;;4.00;1.87;;;;;;;14.41;31.15;101790.97;1737129;79;21508;-35
2021/10/25 11:59:34;;;;;;;3.72;2.33;;;;;;;14.27;31.40;101787.80;1771638;79;21135;-36
2021/10/25 12:02:09;;;;;;;3.33;1.95;;;;;;;14.32;31.42;101784.77;1764348;80;21214;-37
2021/10/25 12:04:44;;;;;;;4.08;2.33;;;;;;;14.61;31.30;101789.38;1766860;79;21143;-36
2021/10/25 12:07:13;;;;;;;8.30;2.40;;;;;;;14.78;30.96;101794.33;1696074;80;21560;-40
2021/10/25 12:09:41;;;;;;;6.87;2.42;;;;;;;15.15;30.81;101794.12;1718509;82;21044;-40
2021/10/25 12:12:15;;;;;;;5.25;2.90;;;;;;;15.23;29.82;101794.14;1669814;83;21590;-40
2021/10/25 12:14:45;;;;;;;11.18;4.87;;;;;;;14.78;30.87;101790.38;1676345;84;21497;-40
2021/10/25 12:21:22;;;;;;;5.15;3.20;;;;;;;14.29;31.57;101782.54;1706224;81;21110;-35
2021/10/25 12:24:01;;;;;;;7.62;2.98;;;;;;;14.35;31.95;101792.67;1669279;82;21652;-36
2021/10/25 12:26:32;;;;;;;4.42;2.70;;;;;;;14.36;31.73;101781.27;1685128;83;21143;-40
2021/10/25 12:29:21;;;;;;;4.62;2.85;;;;;;;14.63;31.56;101785.03;1682931;83;21049;-35
2021/10/25 12:31:52;;;;;;;4.67;3.65;;;;;;;14.87;31.23;101789.13;1698566;83;21100;-40
2021/10/25 12:39:24;;;;;;;4.12;2.70;;;;;;;15.65;29.13;101776.73;1642297;86;21095;-37
2021/10/25 12:41:54;;;;;;;;;;;;;;;15.40;29.29;101778.39;1681948;83;21511;-40
2021/10/25 12:54:12;;;;;;;6.12;4.97;;;;;;;14.75;29.89;101777.64;1649574;85;21099;-36
2021/10/25 12:56:41;;;;;;;3.47;3.02;;;;;;;14.24;30.50;101773.72;1651417;84;21215;-38
2021/10/25 12:59:10;;;;;;;3.45;2.55;;;;;;;13.71;31.17;101777.61;1651166;83;21342;-40
2021/10/25 13:01:50;;;;;;;7.42;3.05;;;;;;;13.42;32.10;101785.61;1613787;85;21088;-40
2021/10/25 13:04:19;;;;;;;3.40;2.72;;;;;;;13.24;32.49;101787.14;1686398;83;22025;-37
2021/10/25 13:06:48;;;;;;;1.85;1.55;;;;;;;13.13;32.51;101790.47;1669136;83;21126;-36
2021/10/25 13:09:16;;;;;;;2.00;1.80;;;;;;;12.92;32.37;101782.73;1638914;85;21599;-40
2021/10/25 13:12:32;;;;;;;3.87;2.87;;;;;;;12.53;32.76;101786.98;1637516;78;21187;31
2021/10/25 13:15:07;;;;;;;3.67;2.85;;;;;;;12.14;33.80;101782.84;1667011;83;21025;-35
2021/10/25 13:17:35;;;;;;;7.53;4.37;;;;;;;12.37;33.87;101783.23;1676678;83;21649;-39
2021/10/25 13:20:04;;;;;;;4.03;3.20;;;;;;;12.72;33.42;101786.39;1682250;83;21564;-35
2021/10/25 13:22:41;;;;;;;5.87;4.00;;;;;;;13.14;33.15;101780.40;1681192;83;21095;-39
2021/10/25 13:25:12;;;;;;;6.03;3.02;;;;;;;13.57;32.69;101784.48;1671368;83;21129;-36
2021/10/25 13:27:42;;;;;;;5.15;2.77;;;;;;;13.99;31.84;101776.14;1690785;82;21038;-39
2021/10/25 13:30:11;;;;;;;5.20;3.20;;;;;;;14.05;31.78;101772.69;1728568;80;21020;-35
2021/10/25 13:35:41;;;;;;;5.83;3.40;;;;;;;13.44;32.45;101782.55;1732187;80;21118;-39
2021/10/25 13:38:12;;;;;;;3.70;2.60;;;;;;;13.45;32.47;101775.11;1764246;80;21793;-35
2021/10/25 13:47:18;;;;;;;6.20;3.98;;;;;;;13.28;32.19;101767.05;1734540;80;21080;-36
